createdAt,value
2017-06-23T00:00:06.041Z,24.11
2017-06-23T00:00:32.151Z,24.1
2017-06-23T00:00:58.250Z,24.14
2017-06-23T00:01:24.365Z,24.1
2017-06-23T00:01:50.473Z,24.16
2017-06-23T00:02:16.574Z,24.08
2017-06-23T00:02:42.713Z,24.18
2017-06-23T00:03:08.816Z,24.23
2017-06-23T00:03:34.908Z,24.17
2017-06-23T00:04:01.018Z,24.13
2017-06-23T00:04:27.143Z,24.1
2017-06-23T00:04:53.258Z,24.13
2017-06-23T00:05:19.368Z,24.2
2017-06-23T00:05:45.466Z,24.2
2017-06-23T00:06:11.585Z,24.06
2017-06-23T00:06:37.715Z,24.08
2017-06-23T00:07:03.822Z,24.14
2017-06-23T00:07:29.910Z,24.11
2017-06-23T00:07:56.012Z,24.08
2017-06-23T00:08:22.120Z,24.21
2017-06-23T00:08:48.209Z,24.14
2017-06-23T00:09:14.340Z,24.16
2017-06-23T00:09:40.432Z,24.17
2017-06-23T00:10:06.564Z,23.96
2017-06-23T00:10:32.671Z,24.02
2017-06-23T00:10:58.761Z,24.11
2017-06-23T00:11:24.913Z,24.13
2017-06-23T00:11:51.022Z,24.08
2017-06-23T00:12:17.115Z,24.03
2017-06-23T00:12:43.237Z,24.13
2017-06-23T00:13:09.344Z,24.08
2017-06-23T00:13:35.468Z,24.14
2017-06-23T00:14:01.560Z,24.16
2017-06-23T00:14:27.669Z,24.13
2017-06-23T00:14:53.768Z,24.2
2017-06-23T00:15:19.859Z,24.23
2017-06-23T00:15:45.968Z,24.08
2017-06-23T00:16:12.069Z,24.08
2017-06-23T00:16:38.184Z,23.98
2017-06-23T00:17:04.288Z,24.01
2017-06-23T00:17:30.423Z,24.08
2017-06-23T00:17:56.544Z,23.95
2017-06-23T00:18:22.669Z,23.96
2017-06-23T00:18:48.778Z,24.03
2017-06-23T00:19:14.870Z,23.99
2017-06-23T00:19:40.993Z,23.98
2017-06-23T00:20:07.142Z,24.05
2017-06-23T00:20:33.246Z,24.01
2017-06-23T00:20:59.353Z,24.11
2017-06-23T00:21:25.443Z,23.98
2017-06-23T00:21:51.569Z,23.99
2017-06-23T00:22:17.731Z,24.02
2017-06-23T00:22:43.823Z,23.99
2017-06-23T00:23:09.947Z,23.87
2017-06-23T00:23:36.081Z,23.74
2017-06-23T00:24:02.200Z,23.73
2017-06-23T00:24:28.316Z,23.66
2017-06-23T00:24:54.456Z,23.71
2017-06-23T00:25:20.554Z,23.81
2017-06-23T00:25:46.711Z,23.78
2017-06-23T00:26:12.853Z,23.91
2017-06-23T00:26:38.949Z,23.87
2017-06-23T00:27:05.055Z,23.83
2017-06-23T00:27:31.151Z,23.81
2017-06-23T00:27:57.267Z,23.83
2017-06-23T00:28:23.375Z,23.81
2017-06-23T00:28:49.472Z,23.84
2017-06-23T00:29:15.564Z,23.77
2017-06-23T00:29:41.698Z,23.77
2017-06-23T00:30:07.828Z,23.78
2017-06-23T00:30:33.920Z,23.77
2017-06-23T00:31:00.025Z,23.8
2017-06-23T00:31:26.143Z,23.92
2017-06-23T00:31:52.283Z,23.81
2017-06-23T00:32:18.419Z,23.87
2017-06-23T00:32:44.486Z,23.8
2017-06-23T00:33:10.594Z,23.87
2017-06-23T00:33:36.697Z,23.91
2017-06-23T00:34:02.789Z,23.87
2017-06-23T00:34:28.891Z,23.93
2017-06-23T00:34:55.024Z,23.87
2017-06-23T00:35:21.113Z,23.88
2017-06-23T00:35:47.239Z,23.78
2017-06-23T00:36:13.345Z,23.77
2017-06-23T00:36:39.437Z,23.74
2017-06-23T00:37:05.564Z,23.68
2017-06-23T00:37:31.655Z,23.62
2017-06-23T00:37:57.759Z,23.69
2017-06-23T00:38:23.867Z,23.69
2017-06-23T00:38:49.956Z,23.61
2017-06-23T00:39:16.109Z,23.71
2017-06-23T00:39:42.218Z,23.63
2017-06-23T00:40:08.310Z,23.68
2017-06-23T00:40:34.410Z,23.71
2017-06-23T00:41:00.521Z,23.62
2017-06-23T00:41:26.647Z,23.71
2017-06-23T00:41:52.740Z,23.63
2017-06-23T00:42:18.843Z,23.61
2017-06-23T00:42:44.968Z,23.55
2017-06-23T00:43:11.076Z,23.47
2017-06-23T00:43:37.169Z,23.62
2017-06-23T00:44:03.291Z,23.56
2017-06-23T00:44:29.423Z,23.55
2017-06-23T00:44:55.517Z,23.56
2017-06-23T00:45:21.609Z,23.59
2017-06-23T00:45:47.745Z,23.68
2017-06-23T00:46:13.843Z,23.74
2017-06-23T00:46:39.985Z,23.59
2017-06-23T00:47:06.094Z,23.58
2017-06-23T00:47:32.193Z,23.69
2017-06-23T00:47:58.294Z,23.58
2017-06-23T00:48:24.413Z,23.65
2017-06-23T00:48:50.506Z,23.68
2017-06-23T00:49:16.617Z,23.73
2017-06-23T00:49:42.715Z,23.68
2017-06-23T00:50:08.807Z,23.65
2017-06-23T00:50:34.914Z,23.65
2017-06-23T00:51:01.017Z,23.71
2017-06-23T00:51:27.132Z,23.71
2017-06-23T00:51:53.236Z,23.66
2017-06-23T00:52:19.346Z,23.66
2017-06-23T00:52:45.434Z,23.65
2017-06-23T00:53:11.537Z,23.68
2017-06-23T00:53:37.629Z,23.68
2017-06-23T00:54:03.737Z,23.63
2017-06-23T00:54:29.839Z,23.74
2017-06-23T00:54:55.931Z,23.62
2017-06-23T00:55:22.036Z,23.68
2017-06-23T00:55:48.146Z,23.61
2017-06-23T00:56:14.260Z,23.71
2017-06-23T00:56:40.362Z,23.61
2017-06-23T00:57:06.468Z,23.62
2017-06-23T00:57:32.586Z,23.62
2017-06-23T00:57:58.685Z,23.61
2017-06-23T00:58:24.819Z,23.66
2017-06-23T00:58:50.916Z,23.69
2017-06-23T00:59:17.010Z,23.59
2017-06-23T00:59:43.117Z,23.58
2017-06-23T01:00:09.217Z,23.69
2017-06-23T01:00:35.333Z,23.73
2017-06-23T01:01:01.444Z,23.69
2017-06-23T01:01:27.573Z,23.59
2017-06-23T01:01:53.663Z,23.69
2017-06-23T01:02:19.767Z,23.66
2017-06-23T01:02:45.902Z,23.69
2017-06-23T01:03:11.992Z,23.63
2017-06-23T01:03:38.093Z,23.65
2017-06-23T01:04:04.205Z,23.62
2017-06-23T01:04:30.323Z,23.71
2017-06-23T01:04:56.428Z,23.56
2017-06-23T01:05:22.519Z,23.66
2017-06-23T01:05:48.624Z,23.66
2017-06-23T01:06:14.758Z,23.58
2017-06-23T01:06:40.847Z,23.71
2017-06-23T01:07:06.972Z,23.58
2017-06-23T01:07:33.133Z,23.69
2017-06-23T01:07:59.251Z,23.68
2017-06-23T01:08:25.348Z,23.68
2017-06-23T01:08:51.455Z,23.62
2017-06-23T01:09:17.576Z,23.69
2017-06-23T01:09:43.670Z,23.65
2017-06-23T01:10:09.775Z,23.56
2017-06-23T01:10:35.900Z,23.59
2017-06-23T01:11:02.008Z,23.63
2017-06-23T01:11:28.099Z,23.56
2017-06-23T01:11:54.196Z,23.65
2017-06-23T01:12:20.306Z,23.66
2017-06-23T01:12:46.452Z,23.59
2017-06-23T01:13:12.545Z,23.73
2017-06-23T01:13:38.657Z,23.68
2017-06-23T01:14:04.754Z,23.63
2017-06-23T01:14:30.846Z,23.81
2017-06-23T01:14:56.980Z,23.78
2017-06-23T01:15:23.138Z,23.73
2017-06-23T01:15:49.239Z,23.71
2017-06-23T01:16:15.333Z,23.68
2017-06-23T01:16:41.424Z,23.68
2017-06-23T01:17:07.535Z,23.69
2017-06-23T01:17:33.635Z,23.65
2017-06-23T01:17:59.728Z,23.68
2017-06-23T01:18:25.837Z,23.68
2017-06-23T01:18:51.938Z,23.69
2017-06-23T01:19:18.055Z,23.74
2017-06-23T01:19:44.159Z,23.65
2017-06-23T01:20:10.352Z,23.68
2017-06-23T01:20:36.467Z,23.66
2017-06-23T01:21:02.590Z,23.62
2017-06-23T01:21:28.685Z,23.62
2017-06-23T01:21:54.816Z,23.66
2017-06-23T01:22:20.917Z,23.71
2017-06-23T01:22:47.011Z,23.66
2017-06-23T01:23:13.165Z,23.59
2017-06-23T01:23:39.272Z,23.66
2017-06-23T01:24:05.359Z,23.71
2017-06-23T01:24:31.460Z,23.68
2017-06-23T01:24:57.595Z,23.63
2017-06-23T01:25:23.688Z,23.59
2017-06-23T01:25:49.787Z,23.62
2017-06-23T01:26:15.894Z,23.61
2017-06-23T01:26:42.037Z,23.58
2017-06-23T01:27:08.147Z,23.56
2017-06-23T01:27:34.236Z,23.61
2017-06-23T01:28:00.336Z,23.61
2017-06-23T01:28:26.442Z,23.68
2017-06-23T01:28:52.534Z,23.66
2017-06-23T01:29:18.632Z,23.68
2017-06-23T01:29:44.740Z,23.71
2017-06-23T01:30:10.835Z,23.68
2017-06-23T01:30:36.927Z,23.65
2017-06-23T01:31:03.038Z,23.61
2017-06-23T01:31:29.137Z,23.62
2017-06-23T01:31:55.226Z,23.61
2017-06-23T01:32:21.361Z,23.69
2017-06-23T01:32:47.455Z,23.73
2017-06-23T01:33:13.562Z,23.58
2017-06-23T01:33:39.685Z,23.68
2017-06-23T01:34:05.802Z,23.65
2017-06-23T01:34:31.912Z,23.68
2017-06-23T01:34:58.010Z,23.66
2017-06-23T01:35:24.103Z,23.77
2017-06-23T01:35:50.210Z,23.77
2017-06-23T01:36:16.312Z,23.76
2017-06-23T01:36:42.428Z,23.88
2017-06-23T01:37:08.534Z,23.87
2017-06-23T01:37:34.641Z,23.92
2017-06-23T01:38:00.734Z,23.87
2017-06-23T01:38:26.861Z,23.73
2017-06-23T01:38:52.952Z,23.8
2017-06-23T01:39:19.060Z,23.77
2017-06-23T01:39:45.188Z,23.76
2017-06-23T01:40:11.280Z,23.83
2017-06-23T01:40:37.413Z,23.68
2017-06-23T01:41:03.520Z,23.65
2017-06-23T01:41:29.608Z,23.63
2017-06-23T01:41:55.710Z,23.69
2017-06-23T01:42:21.849Z,23.62
2017-06-23T01:42:47.966Z,23.69
2017-06-23T01:43:14.089Z,23.74
2017-06-23T01:43:40.226Z,23.62
2017-06-23T01:44:06.344Z,23.65
2017-06-23T01:44:32.464Z,23.63
2017-06-23T01:44:58.605Z,23.59
2017-06-23T01:45:24.704Z,23.71
2017-06-23T01:45:50.796Z,23.55
2017-06-23T01:46:16.928Z,23.65
2017-06-23T01:46:43.056Z,23.68
2017-06-23T01:47:09.149Z,23.73
2017-06-23T01:47:35.255Z,23.68
2017-06-23T01:48:01.361Z,23.71
2017-06-23T01:48:27.449Z,23.77
2017-06-23T01:48:53.574Z,23.63
2017-06-23T01:49:19.667Z,23.73
2017-06-23T01:49:45.774Z,23.58
2017-06-23T01:50:11.905Z,23.47
2017-06-23T01:50:37.998Z,23.5
2017-06-23T01:51:04.105Z,23.54
2017-06-23T01:51:30.211Z,23.55
2017-06-23T01:51:56.349Z,23.54
2017-06-23T01:52:22.450Z,23.56
2017-06-23T01:52:48.559Z,23.55
2017-06-23T01:53:14.649Z,23.54
2017-06-23T01:53:40.747Z,23.65
2017-06-23T01:54:06.885Z,23.59
2017-06-23T01:54:32.979Z,23.56
2017-06-23T01:54:59.089Z,23.5
2017-06-23T01:55:25.177Z,23.54
2017-06-23T01:55:51.278Z,23.56
2017-06-23T01:56:17.383Z,23.5
2017-06-23T01:56:43.472Z,23.63
2017-06-23T01:57:09.572Z,23.51
2017-06-23T01:57:35.706Z,23.59
2017-06-23T01:58:01.801Z,23.55
2017-06-23T01:58:27.893Z,23.59
2017-06-23T01:58:54.031Z,23.56
2017-06-23T01:59:20.129Z,23.63
2017-06-23T01:59:46.220Z,23.71
2017-06-23T02:00:12.355Z,23.55
2017-06-23T02:00:38.450Z,23.51
2017-06-23T02:01:04.559Z,23.54
2017-06-23T02:01:30.653Z,23.58
2017-06-23T02:01:56.771Z,23.54
2017-06-23T02:02:22.906Z,23.5
2017-06-23T02:02:49.003Z,23.48
2017-06-23T02:03:15.120Z,23.48
2017-06-23T02:03:41.254Z,23.58
2017-06-23T02:04:07.353Z,23.62
2017-06-23T02:04:33.472Z,23.61
2017-06-23T02:04:59.597Z,23.54
2017-06-23T02:05:25.714Z,23.61
2017-06-23T02:05:51.834Z,23.59
2017-06-23T02:06:17.959Z,23.58
2017-06-23T02:06:44.076Z,23.58
2017-06-23T02:07:10.206Z,23.58
2017-06-23T02:07:36.309Z,23.65
2017-06-23T02:08:02.402Z,23.51
2017-06-23T02:08:28.533Z,23.62
2017-06-23T02:08:54.639Z,23.61
2017-06-23T02:09:20.778Z,23.55
2017-06-23T02:09:46.881Z,23.56
2017-06-23T02:10:13.016Z,23.71
2017-06-23T02:10:39.105Z,23.58
2017-06-23T02:11:05.203Z,23.58
2017-06-23T02:11:31.325Z,23.58
2017-06-23T02:11:57.430Z,23.73
2017-06-23T02:12:23.566Z,23.71
2017-06-23T02:12:49.655Z,23.71
2017-06-23T02:13:15.756Z,23.54
2017-06-23T02:13:41.860Z,23.58
2017-06-23T02:14:07.951Z,23.54
2017-06-23T02:14:34.072Z,23.54
2017-06-23T02:15:00.189Z,23.5
2017-06-23T02:15:26.292Z,23.61
2017-06-23T02:15:52.400Z,23.5
2017-06-23T02:16:18.488Z,23.58
2017-06-23T02:16:44.639Z,23.43
2017-06-23T02:17:10.732Z,23.47
2017-06-23T02:17:36.866Z,23.47
2017-06-23T02:18:02.968Z,23.41
2017-06-23T02:18:29.060Z,23.47
2017-06-23T02:18:55.164Z,23.63
2017-06-23T02:19:21.297Z,23.65
2017-06-23T02:19:47.407Z,23.54
2017-06-23T02:20:13.507Z,23.47
2017-06-23T02:20:39.642Z,23.61
2017-06-23T02:21:05.735Z,23.55
2017-06-23T02:21:31.859Z,23.58
2017-06-23T02:21:57.967Z,23.71
2017-06-23T02:22:24.088Z,23.59
2017-06-23T02:22:50.217Z,23.55
2017-06-23T02:23:16.306Z,23.65
2017-06-23T02:23:42.405Z,23.61
2017-06-23T02:24:08.514Z,23.68
2017-06-23T02:24:34.605Z,23.66
2017-06-23T02:25:00.728Z,23.62
2017-06-23T02:25:26.835Z,23.56
2017-06-23T02:25:52.959Z,23.61
2017-06-23T02:26:19.049Z,23.56
2017-06-23T02:26:45.155Z,23.55
2017-06-23T02:27:11.254Z,23.56
2017-06-23T02:27:37.371Z,23.55
2017-06-23T02:28:03.480Z,23.59
2017-06-23T02:28:29.582Z,23.59
2017-06-23T02:28:55.699Z,23.58
2017-06-23T02:29:21.833Z,23.56
2017-06-23T02:29:47.940Z,23.55
2017-06-23T02:30:14.055Z,23.54
2017-06-23T02:30:40.157Z,23.54
2017-06-23T02:31:06.265Z,23.59
2017-06-23T02:31:32.357Z,23.62
2017-06-23T02:31:58.454Z,23.59
2017-06-23T02:32:24.588Z,23.48
2017-06-23T02:32:50.683Z,23.5
2017-06-23T02:33:16.798Z,23.55
2017-06-23T02:33:42.903Z,23.59
2017-06-23T02:34:09.005Z,23.58
2017-06-23T02:34:35.113Z,23.66
2017-06-23T02:35:01.205Z,23.47
2017-06-23T02:35:27.303Z,23.48
2017-06-23T02:35:53.465Z,23.5
2017-06-23T02:36:19.582Z,23.54
2017-06-23T02:36:45.698Z,23.41
2017-06-23T02:37:11.834Z,23.44
2017-06-23T02:37:37.961Z,23.39
2017-06-23T02:38:04.054Z,23.21
2017-06-23T02:38:30.188Z,23.36
2017-06-23T02:38:56.290Z,23.32
2017-06-23T02:39:22.392Z,23.27
2017-06-23T02:39:48.489Z,23.32
2017-06-23T02:40:14.630Z,23.37
2017-06-23T02:40:40.766Z,23.47
2017-06-23T02:41:06.890Z,23.5
2017-06-23T02:41:32.982Z,23.47
2017-06-23T02:41:59.089Z,23.47
2017-06-23T02:42:25.213Z,23.27
2017-06-23T02:42:51.330Z,23.31
2017-06-23T02:43:17.434Z,23.28
2017-06-23T02:43:43.542Z,23.21
2017-06-23T02:44:09.632Z,23.18
2017-06-23T02:44:35.734Z,23.15
2017-06-23T02:45:01.881Z,22.98
2017-06-23T02:45:28.041Z,23.02
2017-06-23T02:45:54.142Z,22.98
2017-06-23T02:46:20.234Z,22.94
2017-06-23T02:46:46.338Z,22.91
2017-06-23T02:47:12.471Z,22.94
2017-06-23T02:47:38.561Z,22.91
2017-06-23T02:48:04.686Z,22.84
2017-06-23T02:48:30.794Z,22.88
2017-06-23T02:48:56.939Z,22.9
2017-06-23T02:49:23.036Z,22.9
2017-06-23T02:49:49.145Z,22.7
2017-06-23T02:50:15.240Z,22.72
2017-06-23T02:50:41.353Z,22.62
2017-06-23T02:51:07.463Z,22.62
2017-06-23T02:51:33.563Z,22.68
2017-06-23T02:51:59.656Z,22.69
2017-06-23T02:52:25.791Z,22.6
2017-06-23T02:52:51.890Z,22.6
2017-06-23T02:53:17.981Z,22.6
2017-06-23T02:53:44.086Z,22.66
2017-06-23T02:54:10.194Z,22.66
2017-06-23T02:54:36.309Z,22.73
2017-06-23T02:55:02.431Z,22.73
2017-06-23T02:55:28.539Z,22.68
2017-06-23T02:55:54.632Z,22.68
2017-06-23T02:56:20.763Z,22.6
2017-06-23T02:56:46.854Z,22.53
2017-06-23T02:57:12.957Z,22.59
2017-06-23T02:57:39.090Z,22.55
2017-06-23T02:58:05.201Z,22.53
2017-06-23T02:58:31.303Z,22.51
2017-06-23T02:58:57.465Z,22.45
2017-06-23T02:59:23.581Z,22.35
2017-06-23T02:59:49.701Z,22.32
2017-06-23T03:00:15.837Z,22.36
2017-06-23T03:00:41.931Z,22.25
2017-06-23T03:01:08.023Z,22.36
2017-06-23T03:01:34.124Z,22.35
2017-06-23T03:02:00.223Z,22.35
2017-06-23T03:02:26.331Z,22.38
2017-06-23T03:02:52.448Z,22.29
2017-06-23T03:03:18.547Z,22.38
2017-06-23T03:03:44.654Z,22.32
2017-06-23T03:04:10.749Z,22.35
2017-06-23T03:04:36.866Z,22.36
2017-06-23T03:05:03.003Z,22.33
2017-06-23T03:05:29.099Z,22.33
2017-06-23T03:05:55.216Z,22.32
2017-06-23T03:06:21.344Z,22.39
2017-06-23T03:06:47.472Z,22.38
2017-06-23T03:07:13.573Z,22.44
2017-06-23T03:07:39.670Z,22.43
2017-06-23T03:08:05.766Z,22.53
2017-06-23T03:08:31.871Z,22.45
2017-06-23T03:08:57.971Z,22.48
2017-06-23T03:09:24.086Z,22.51
2017-06-23T03:09:50.193Z,22.47
2017-06-23T03:10:16.296Z,22.47
2017-06-23T03:10:42.388Z,22.48
2017-06-23T03:11:08.522Z,22.51
2017-06-23T03:11:34.955Z,22.53
2017-06-23T03:12:01.046Z,22.57
2017-06-23T03:12:27.145Z,22.47
2017-06-23T03:12:53.279Z,22.51
2017-06-23T03:13:19.372Z,22.55
2017-06-23T03:13:45.490Z,22.53
2017-06-23T03:14:11.579Z,22.45
2017-06-23T03:14:37.697Z,22.45
2017-06-23T03:15:03.789Z,22.41
2017-06-23T03:15:29.901Z,22.45
2017-06-23T03:15:56.000Z,22.41
2017-06-23T03:16:22.142Z,22.45
2017-06-23T03:16:48.249Z,22.47
2017-06-23T03:17:14.348Z,22.43
2017-06-23T03:17:40.490Z,22.43
2017-06-23T03:18:06.594Z,22.44
2017-06-23T03:18:32.685Z,22.43
2017-06-23T03:18:58.795Z,22.41
2017-06-23T03:19:24.893Z,22.32
2017-06-23T03:19:51.009Z,22.36
2017-06-23T03:20:17.141Z,22.29
2017-06-23T03:20:43.241Z,22.3
2017-06-23T03:21:09.333Z,22.28
2017-06-23T03:21:35.438Z,22.23
2017-06-23T03:22:01.574Z,22.28
2017-06-23T03:22:27.687Z,22.29
2017-06-23T03:22:53.818Z,22.29
2017-06-23T03:23:19.983Z,22.23
2017-06-23T03:23:46.127Z,22.28
2017-06-23T03:24:12.232Z,22.17
2017-06-23T03:24:38.352Z,22.17
2017-06-23T03:25:04.457Z,22.13
2017-06-23T03:25:30.564Z,22.18
2017-06-23T03:25:56.680Z,22.15
2017-06-23T03:26:22.806Z,22.15
2017-06-23T03:26:48.943Z,22.13
2017-06-23T03:27:15.035Z,22.11
2017-06-23T03:27:41.135Z,22.06
2017-06-23T03:28:07.272Z,22.14
2017-06-23T03:28:33.392Z,22.22
2017-06-23T03:28:59.483Z,22.15
2017-06-23T03:29:25.588Z,22.15
2017-06-23T03:29:51.738Z,22.13
2017-06-23T03:30:17.846Z,22.15
2017-06-23T03:30:43.962Z,22.11
2017-06-23T03:31:10.061Z,22.18
2017-06-23T03:31:36.167Z,22
2017-06-23T03:32:02.262Z,22.06
2017-06-23T03:32:28.353Z,21.98
2017-06-23T03:32:54.465Z,22.04
2017-06-23T03:33:20.589Z,21.93
2017-06-23T03:33:46.681Z,21.95
2017-06-23T03:34:12.790Z,22
2017-06-23T03:34:38.888Z,21.95
2017-06-23T03:35:04.989Z,21.96
2017-06-23T03:35:31.085Z,21.95
2017-06-23T03:35:57.201Z,22.07
2017-06-23T03:36:23.313Z,22
2017-06-23T03:36:49.411Z,21.98
2017-06-23T03:37:15.500Z,22.06
2017-06-23T03:37:41.608Z,22.02
2017-06-23T03:38:07.708Z,22.02
2017-06-23T03:38:33.802Z,22.06
2017-06-23T03:38:59.907Z,22.02
2017-06-23T03:39:26.015Z,21.98
2017-06-23T03:39:52.103Z,22.02
2017-06-23T03:40:18.205Z,22.02
2017-06-23T03:40:44.299Z,22.04
2017-06-23T03:41:10.405Z,22.06
2017-06-23T03:41:36.505Z,22
2017-06-23T03:42:02.974Z,22
2017-06-23T03:42:29.106Z,21.96
2017-06-23T03:42:55.210Z,21.98
2017-06-23T03:43:21.351Z,22.04
2017-06-23T03:43:47.454Z,21.98
2017-06-23T03:44:13.561Z,21.92
2017-06-23T03:44:39.680Z,21.92
2017-06-23T03:45:05.779Z,22.06
2017-06-23T03:45:31.887Z,22.04
2017-06-23T03:45:57.981Z,22.06
2017-06-23T03:46:24.115Z,22.02
2017-06-23T03:46:50.202Z,22.04
2017-06-23T03:47:16.305Z,22
2017-06-23T03:47:42.411Z,21.95
2017-06-23T03:48:08.553Z,22
2017-06-23T03:48:34.652Z,22.02
2017-06-23T03:49:00.786Z,22.06
2017-06-23T03:49:26.883Z,22.06
2017-06-23T03:49:52.975Z,22
2017-06-23T03:50:19.083Z,21.96
2017-06-23T03:50:45.181Z,21.99
2017-06-23T03:51:11.273Z,21.99
2017-06-23T03:51:37.406Z,21.98
2017-06-23T03:52:03.527Z,21.95
2017-06-23T03:52:29.634Z,22.06
2017-06-23T03:52:55.731Z,22
2017-06-23T03:53:21.823Z,21.99
2017-06-23T03:53:47.932Z,22
2017-06-23T03:54:14.030Z,22
2017-06-23T03:54:40.122Z,22
2017-06-23T03:55:06.228Z,21.99
2017-06-23T03:55:32.386Z,22.06
2017-06-23T03:55:58.500Z,22.11
2017-06-23T03:56:24.603Z,22.08
2017-06-23T03:56:50.709Z,22.06
2017-06-23T03:57:16.797Z,22
2017-06-23T03:57:42.896Z,22.02
2017-06-23T03:58:09.001Z,22
2017-06-23T03:58:35.089Z,21.95
2017-06-23T03:59:01.185Z,22.04
2017-06-23T03:59:27.320Z,22.1
2017-06-23T03:59:53.415Z,22.06
2017-06-23T04:00:19.506Z,22.06
2017-06-23T04:00:45.618Z,22.06
2017-06-23T04:01:11.742Z,22.07
2017-06-23T04:01:37.835Z,22.08
2017-06-23T04:02:03.942Z,21.99
2017-06-23T04:02:30.069Z,22
2017-06-23T04:02:56.170Z,21.92
2017-06-23T04:03:22.290Z,22.04
2017-06-23T04:03:48.406Z,22.02
2017-06-23T04:04:14.543Z,22
2017-06-23T04:04:40.641Z,22.06
2017-06-23T04:05:06.732Z,22.02
2017-06-23T04:05:32.894Z,21.95
2017-06-23T04:05:59.049Z,22.02
2017-06-23T04:06:25.190Z,21.98
2017-06-23T04:06:51.293Z,22.06
2017-06-23T04:07:17.501Z,22.1
2017-06-23T04:07:43.590Z,22.07
2017-06-23T04:08:09.691Z,22
2017-06-23T04:08:35.786Z,21.95
2017-06-23T04:09:01.892Z,22.06
2017-06-23T04:09:27.994Z,22.07
2017-06-23T04:09:54.084Z,22.02
2017-06-23T04:10:20.189Z,22.02
2017-06-23T04:10:46.293Z,22.06
2017-06-23T04:11:12.382Z,22.1
2017-06-23T04:11:38.512Z,22.13
2017-06-23T04:12:04.647Z,22.06
2017-06-23T04:12:31.091Z,22.1
2017-06-23T04:12:57.188Z,22.02
2017-06-23T04:13:23.296Z,22.18
2017-06-23T04:13:49.390Z,22.15
2017-06-23T04:14:15.523Z,22.2
2017-06-23T04:14:41.612Z,22.15
2017-06-23T04:15:07.713Z,22.11
2017-06-23T04:15:33.820Z,22.2
2017-06-23T04:15:59.912Z,22.1
2017-06-23T04:16:26.011Z,22.22
2017-06-23T04:16:52.149Z,22.17
2017-06-23T04:17:18.271Z,22.17
2017-06-23T04:17:44.363Z,22.18
2017-06-23T04:18:10.473Z,22.17
2017-06-23T04:18:36.568Z,22.18
2017-06-23T04:19:02.660Z,22.15
2017-06-23T04:19:28.769Z,22.23
2017-06-23T04:19:54.865Z,22.28
2017-06-23T04:20:20.973Z,22.32
2017-06-23T04:20:47.067Z,22.33
2017-06-23T04:21:13.157Z,22.33
2017-06-23T04:21:39.295Z,22.26
2017-06-23T04:22:05.419Z,22.3
2017-06-23T04:22:31.559Z,22.33
2017-06-23T04:22:57.667Z,22.33
2017-06-23T04:23:23.797Z,22.39
2017-06-23T04:23:49.887Z,22.33
2017-06-23T04:24:15.993Z,22.33
2017-06-23T04:24:42.159Z,22.36
2017-06-23T04:25:08.252Z,22.32
2017-06-23T04:25:34.351Z,22.35
2017-06-23T04:26:00.443Z,22.3
2017-06-23T04:26:26.551Z,22.32
2017-06-23T04:26:52.683Z,22.3
2017-06-23T04:27:18.794Z,22.17
2017-06-23T04:27:44.898Z,22.14
2017-06-23T04:28:11.005Z,22.17
2017-06-23T04:28:37.118Z,22.22
2017-06-23T04:29:03.246Z,22.18
2017-06-23T04:29:29.380Z,22.23
2017-06-23T04:29:55.495Z,22.32
2017-06-23T04:30:21.594Z,22.26
2017-06-23T04:30:47.693Z,22.3
2017-06-23T04:31:13.797Z,22.39
2017-06-23T04:31:39.902Z,22.3
2017-06-23T04:32:05.989Z,22.35
2017-06-23T04:32:32.091Z,22.38
2017-06-23T04:32:58.197Z,22.45
2017-06-23T04:33:24.289Z,22.35
2017-06-23T04:33:50.388Z,22.45
2017-06-23T04:34:16.550Z,22.38
2017-06-23T04:34:42.647Z,22.33
2017-06-23T04:35:08.738Z,22.32
2017-06-23T04:35:34.850Z,22.35
2017-06-23T04:36:00.976Z,22.26
2017-06-23T04:36:27.106Z,22.32
2017-06-23T04:36:53.195Z,22.32
2017-06-23T04:37:19.291Z,22.33
2017-06-23T04:37:45.400Z,22.39
2017-06-23T04:38:11.494Z,22.33
2017-06-23T04:38:38.598Z,22.33
2017-06-23T04:39:04.707Z,22.38
2017-06-23T04:39:30.807Z,22.45
2017-06-23T04:39:56.921Z,22.41
2017-06-23T04:40:23.028Z,22.43
2017-06-23T04:40:49.135Z,22.45
2017-06-23T04:41:15.220Z,22.51
2017-06-23T04:41:41.352Z,22.57
2017-06-23T04:42:07.487Z,22.73
2017-06-23T04:42:33.574Z,22.72
2017-06-23T04:42:59.676Z,22.81
2017-06-23T04:43:25.839Z,22.98
2017-06-23T04:43:51.931Z,23.12
2017-06-23T04:44:18.029Z,23.17
2017-06-23T04:44:44.136Z,23.36
2017-06-23T04:45:10.229Z,23.41
2017-06-23T04:45:36.343Z,23.43
2017-06-23T04:46:02.453Z,23.62
2017-06-23T04:46:28.577Z,23.59
2017-06-23T04:46:54.696Z,23.8
2017-06-23T04:47:20.825Z,23.98
2017-06-23T04:47:46.921Z,24.13
2017-06-23T04:48:13.029Z,24.13
2017-06-23T04:48:39.124Z,24.21
2017-06-23T04:49:05.238Z,24.18
2017-06-23T04:49:31.348Z,24.18
2017-06-23T04:49:57.448Z,24.17
2017-06-23T04:50:23.542Z,24.45
2017-06-23T04:50:49.650Z,24.43
2017-06-23T04:51:15.750Z,24.6
2017-06-23T04:51:41.869Z,24.8
2017-06-23T04:52:07.974Z,24.88
2017-06-23T04:52:34.084Z,25.1
2017-06-23T04:53:00.207Z,25.25
2017-06-23T04:53:26.330Z,25.35
2017-06-23T04:53:52.423Z,25.36
2017-06-23T04:54:18.555Z,25.35
2017-06-23T04:54:44.658Z,25.46
2017-06-23T04:55:10.752Z,25.6
2017-06-23T04:55:36.878Z,25.58
2017-06-23T04:56:02.989Z,25.68
2017-06-23T04:56:29.105Z,25.6
2017-06-23T04:56:55.257Z,25.77
2017-06-23T04:57:21.365Z,25.8
2017-06-23T04:57:47.459Z,25.99
2017-06-23T04:58:13.558Z,26.13
2017-06-23T04:58:39.655Z,26.16
2017-06-23T04:59:05.763Z,26.02
2017-06-23T04:59:31.868Z,26.1
2017-06-23T04:59:57.957Z,26.16
2017-06-23T05:00:24.059Z,26.23
2017-06-23T05:00:50.168Z,26.29
2017-06-23T05:01:16.283Z,26.41
2017-06-23T05:01:42.405Z,26.55
2017-06-23T05:02:08.542Z,26.6
2017-06-23T05:02:34.638Z,26.68
2017-06-23T05:03:00.733Z,26.77
2017-06-23T05:03:26.844Z,26.65
2017-06-23T05:03:52.943Z,26.53
2017-06-23T05:04:19.097Z,26.23
2017-06-23T05:04:45.189Z,26.07
2017-06-23T05:05:11.288Z,25.95
2017-06-23T05:05:37.394Z,25.77
2017-06-23T05:06:03.491Z,25.6
2017-06-23T05:06:29.610Z,25.65
2017-06-23T05:06:55.747Z,25.44
2017-06-23T05:07:21.844Z,25.31
2017-06-23T05:07:48.087Z,25.25
2017-06-23T05:08:14.195Z,25.18
2017-06-23T05:08:40.297Z,25.23
2017-06-23T05:09:06.391Z,24.99
2017-06-23T05:09:32.497Z,25.07
2017-06-23T05:09:58.590Z,25.03
2017-06-23T05:10:24.728Z,25.08
2017-06-23T05:10:50.825Z,25.25
2017-06-23T05:11:16.941Z,25.29
2017-06-23T05:11:43.102Z,25.18
2017-06-23T05:12:09.205Z,25.03
2017-06-23T05:12:35.298Z,24.89
2017-06-23T05:13:01.418Z,24.8
2017-06-23T05:13:27.538Z,24.8
2017-06-23T05:13:53.626Z,24.78
2017-06-23T05:14:19.729Z,24.68
2017-06-23T05:14:45.838Z,24.68
2017-06-23T05:15:11.930Z,24.65
2017-06-23T05:15:38.035Z,24.7
2017-06-23T05:16:04.128Z,24.84
2017-06-23T05:16:30.231Z,24.8
2017-06-23T05:16:56.340Z,24.7
2017-06-23T05:17:22.428Z,24.66
2017-06-23T05:17:48.555Z,24.7
2017-06-23T05:18:14.691Z,24.8
2017-06-23T05:18:40.785Z,24.85
2017-06-23T05:19:06.910Z,24.85
2017-06-23T05:19:33.019Z,25.01
2017-06-23T05:19:59.162Z,25.01
2017-06-23T05:20:25.303Z,25.13
2017-06-23T05:20:51.410Z,25.14
2017-06-23T05:21:17.536Z,25.29
2017-06-23T05:21:43.671Z,25.33
2017-06-23T05:22:09.802Z,25.4
2017-06-23T05:22:35.897Z,25.38
2017-06-23T05:23:02.004Z,25.31
2017-06-23T05:23:28.150Z,25.33
2017-06-23T05:23:54.250Z,25.14
2017-06-23T05:24:20.360Z,25.01
2017-06-23T05:24:46.485Z,24.96
2017-06-23T05:25:12.602Z,25.01
2017-06-23T05:25:38.711Z,25.03
2017-06-23T05:26:04.842Z,25.13
2017-06-23T05:26:30.935Z,25.01
2017-06-23T05:26:57.039Z,25.06
2017-06-23T05:27:23.147Z,24.78
2017-06-23T05:27:49.314Z,24.86
2017-06-23T05:28:15.415Z,24.8
2017-06-23T05:28:41.523Z,24.81
2017-06-23T05:29:07.645Z,24.66
2017-06-23T05:29:33.794Z,24.68
2017-06-23T05:29:59.903Z,24.54
2017-06-23T05:30:26.050Z,24.66
2017-06-23T05:30:52.144Z,24.58
2017-06-23T05:31:18.257Z,24.69
2017-06-23T05:31:44.357Z,24.68
2017-06-23T05:32:10.487Z,24.58
2017-06-23T05:32:36.578Z,24.55
2017-06-23T05:33:02.707Z,24.58
2017-06-23T05:33:28.863Z,24.65
2017-06-23T05:33:54.961Z,24.61
2017-06-23T05:34:21.079Z,24.57
2017-06-23T05:34:47.189Z,24.55
2017-06-23T05:35:13.286Z,24.58
2017-06-23T05:35:39.379Z,24.55
2017-06-23T05:36:05.513Z,24.48
2017-06-23T05:36:31.615Z,24.47
2017-06-23T05:36:57.707Z,24.5
2017-06-23T05:37:23.812Z,24.36
2017-06-23T05:37:49.907Z,24.55